Time,TemperatureF,DewpointF,PressureIn,WindDirection,WindDirectionDegrees,WindSpeedMPH,WindSpeedGustMPH,Humidity,HourlyPrecipIn,Conditions,Clouds,dailyrainin,SoftwareType,DateUTC
2013-01-28 00:10:00,35.5,34.0,29.95,NE,42,3.0,7.0,94,0.02,,OVC021,-99.99,VWS V12.07,2013-01-28 08:10:00,
2013-01-28 01:10:00,35.5,34.0,29.95,ENE,59,2.0,4.0,94,0.01,,OVC034,-99.99,VWS V12.07,2013-01-28 09:10:00,
2013-01-28 02:10:00,35.8,34.2,29.96,ESE,103,0.0,3.0,94,0.04,,OVC027,-99.99,VWS V12.07,2013-01-28 10:10:00,
2013-01-28 03:10:00,36.6,35.0,29.96,ESE,121,2.0,3.0,94,0.04, BR,,-99.99,VWS V12.07,2013-01-28 11:10:00,
2013-01-28 04:10:00,35.5,34.0,29.98,North,356,0.0,2.0,94,0.12,,SCT019,-99.99,VWS V12.07,2013-01-28 12:10:00,
2013-01-28 05:10:00,34.4,32.9,29.99,NE,41,2.0,4.0,94,0.03,,SCT025,-99.99,VWS V12.07,2013-01-28 13:10:00,
2013-01-28 06:10:00,33.8,32.3,30.00,NE,54,2.0,2.0,94,0.08,,OVC110,-99.99,VWS V12.07,2013-01-28 14:10:00,
2013-01-28 07:10:00,34.7,33.2,30.02,NE,52,0.0,2.0,94,0.13,,OVC050,-99.99,VWS V12.07,2013-01-28 15:10:00,
2013-01-28 08:10:00,35.5,34.0,30.02,ENE,66,2.0,3.0,94,0.08,,OVC100,-99.99,VWS V12.07,2013-01-28 16:10:00,
2013-01-28 09:10:00,35.3,33.8,30.01,NE,34,2.0,3.0,94,0.10, -RA,-RA,-99.99,VWS V12.07,2013-01-28 17:10:00,
2013-01-28 10:10:00,36.2,34.6,30.01,NE,38,1.0,1.0,94,0.08, -RA BR,-RA,-99.99,VWS V12.07,2013-01-28 18:10:00,
2013-01-28 11:10:00,37.3,35.7,30.02,WSW,246,2.0,7.0,94,0.08, -RA BR,-RA,-99.99,VWS V12.07,2013-01-28 19:10:00,
2013-01-28 12:10:00,36.6,35.0,30.03,WSW,239,3.0,5.0,94,0.13, -RA BR,-RA,-99.99,VWS V12.07,2013-01-28 20:10:00,
2013-01-28 13:10:00,36.8,35.2,30.00,WSW,250,0.0,2.0,94,0.13, -RA BR,-RA,-99.99,VWS V12.07,2013-01-28 21:10:00,
2013-01-28 14:10:00,34.7,33.2,30.00,NE,45,2.0,3.0,94,0.10, -RA BR,-RA,-99.99,VWS V12.07,2013-01-28 22:10:00,
2013-01-28 15:10:00,35.2,33.7,29.99,NNE,32,2.0,5.0,94,0.10, -RA BR,-RA,-99.99,VWS V12.07,2013-01-28 23:10:00,
2013-01-28 16:10:00,34.7,33.2,29.98,NE,48,2.0,5.0,94,0.10, -RA BR,-RA,-99.99,VWS V12.07,2013-01-29 00:10:00,
2013-01-28 17:10:00,36.6,35.0,29.99,ENE,68,1.0,3.0,94,0.08, -RA BR,-RA,-99.99,VWS V12.07,2013-01-29 01:10:00,
2013-01-28 18:10:00,36.9,35.3,29.99,NE,48,2.0,5.0,94,0.08, -RA BR,-RA,-99.99,VWS V12.07,2013-01-29 02:10:00,
2013-01-28 19:10:00,36.9,35.3,29.99,NE,35,3.0,6.0,94,0.08, -RA BR,-RA,-99.99,VWS V12.07,2013-01-29 03:10:00,
2013-01-28 20:10:00,36.6,35.0,29.98,NNE,27,1.0,5.0,94,0.11, -RA,-RA,-99.99,VWS V12.07,2013-01-29 04:10:00,
2013-01-28 21:10:00,36.8,35.2,30.00,NE,45,1.0,5.0,94,0.10, -RA BR,-RA,-99.99,VWS V12.07,2013-01-29 05:10:00,
2013-01-28 22:10:00,36.8,35.2,30.01,NNE,31,2.0,3.0,94,0.10, -RA BR,-RA,-99.99,VWS V12.07,2013-01-29 06:10:00,
2013-01-28 23:10:00,37.3,35.7,30.02,NNE,32,1.0,3.0,94,0.07, -RA,-RA,-99.99,VWS V12.07,2013-01-29 07:10:00,